Time;durP1;ratioP1;P1;durP2;ratioP2;P2;SDS_P1;SDS_P2;PMS_P1;PMS_P2;Temp;Humidity;BMP_temperature;BMP_pressure;BME280_temperature;BME280_humidity;BME280_pressure;Samples;Min_cycle;Max_cycle;Signal;HPM_P1;HPM_P2
2021/04/21 00:01:06;;;;;;;21.15;16.80;;;10.20;99.90;;;;;;5080509;28;20201;-60
2021/04/21 00:03:34;;;;;;;17.05;15.32;;;10.10;99.90;;;;;;5077320;28;20213;-61
2021/04/21 00:06:02;;;;;;;17.02;14.80;;;10.00;99.90;;;;;;5068970;28;20209;-61
2021/04/21 00:08:31;;;;;;;17.80;15.32;;;10.00;99.90;;;;;;5081330;28;20208;-61
2021/04/21 00:10:59;;;;;;;21.98;16.60;;;9.80;99.90;;;;;;5070238;28;20225;-61
2021/04/21 00:13:26;;;;;;;17.17;15.40;;;9.80;99.90;;;;;;5076422;28;20218;-61
2021/04/21 00:15:53;;;;;;;21.52;16.58;;;10.00;99.90;;;;;;5080019;28;20240;-62
2021/04/21 00:18:21;;;;;;;20.20;16.05;;;10.00;99.90;;;;;;5080878;28;20425;-61
2021/04/21 00:20:56;;;;;;;21.77;18.00;;;9.90;99.90;;;;;;5080703;28;20428;-61
2021/04/21 00:23:24;;;;;;;17.38;15.55;;;9.90;99.90;;;;;;5080888;28;20234;-61
2021/04/21 00:25:54;;;;;;;21.35;15.90;;;9.80;99.90;;;;;;5080535;28;20204;-62
2021/04/21 00:28:24;;;;;;;20.13;17.50;;;9.90;99.90;;;;;;5080667;28;20509;-61
2021/04/21 00:30:53;;;;;;;19.77;16.73;;;9.70;99.90;;;;;;5080698;28;20211;-62
2021/04/21 00:33:21;;;;;;;18.58;16.58;;;9.60;99.90;;;;;;5080294;28;20199;-62
2021/04/21 00:35:50;;;;;;;18.00;15.90;;;9.40;99.90;;;;;;5081881;28;20408;-60
2021/04/21 00:38:21;;;;;;;19.13;17.15;;;9.30;99.90;;;;;;5081159;28;20207;-60
2021/04/21 00:40:53;;;;;;;23.10;17.38;;;9.30;99.90;;;;;;5067016;28;20214;-60
2021/04/21 00:43:23;;;;;;;19.48;17.33;;;9.10;99.90;;;;;;5080340;28;20203;-61
2021/04/21 00:45:56;;;;;;;22.38;18.45;;;9.10;99.90;;;;;;5066127;28;20207;-60
2021/04/21 00:48:51;;;;;;;19.85;17.75;;;9.20;99.90;;;;;;5076970;28;20196;-60
2021/04/21 00:51:55;;;;;;;26.10;17.80;;;9.20;99.90;;;;;;5069248;28;20244;-60
2021/04/21 00:54:36;;;;;;;22.35;18.88;;;9.00;99.90;;;;;;5053249;28;20641;-61
2021/04/21 00:57:10;;;;;;;20.75;18.55;;;9.10;99.90;;;;;;5066098;28;20212;-61
2021/04/21 01:00:00;;;;;;;21.08;18.80;;;9.20;99.90;;;;;;5080273;28;20214;-60
2021/04/21 01:02:33;;;;;;;21.63;18.63;;;9.30;99.90;;;;;;5079948;28;20565;-61
2021/04/21 01:05:05;;;;;;;22.13;18.13;;;9.40;99.90;;;;;;5079100;28;20218;-60
2021/04/21 01:07:33;;;;;;;31.40;20.02;;;9.30;99.90;;;;;;5079844;28;20210;-60
2021/04/21 01:10:02;;;;;;;27.25;21.45;;;9.30;99.90;;;;;;5079772;28;20245;-62
2021/04/21 01:12:31;;;;;;;27.40;20.83;;;9.30;99.90;;;;;;5083262;28;20404;-61
2021/04/21 01:15:00;;;;;;;22.55;20.25;;;9.30;99.90;;;;;;5087455;28;20212;-61
2021/04/21 01:17:28;;;;;;;25.63;19.30;;;9.20;99.90;;;;;;5073206;28;20209;-62
2021/04/21 01:20:02;;;;;;;22.85;20.38;;;9.10;99.90;;;;;;5076327;28;20329;-60
2021/04/21 01:22:47;;;;;;;26.05;21.85;;;9.00;99.90;;;;;;5060179;28;20260;-60
2021/04/21 01:25:34;;;;;;;27.50;21.08;;;8.90;99.90;;;;;;5073317;28;20260;-61
2021/04/21 01:28:08;;;;;;;26.05;22.27;;;8.90;99.90;;;;;;5070828;28;20253;-62
2021/04/21 01:30:39;;;;;;;31.95;23.73;;;8.90;99.90;;;;;;5074545;28;20428;-61
2021/04/21 01:33:13;;;;;;;33.30;25.98;;;8.70;99.90;;;;;;5071545;28;20207;-60
2021/04/21 01:35:43;;;;;;;38.72;25.83;;;8.50;99.90;;;;;;5060062;28;20207;-61
2021/04/21 01:38:12;;;;;;;40.05;29.15;;;8.60;99.90;;;;;;5059319;28;20261;-61
2021/04/21 01:40:45;;;;;;;44.20;30.67;;;8.60;99.90;;;;;;5073690;28;20537;-60
2021/04/21 01:43:39;;;;;;;50.78;32.90;;;8.60;99.90;;;;;;5072046;28;20203;-61
2021/04/21 01:46:09;;;;;;;40.85;30.15;;;8.50;99.90;;;;;;5078235;28;20195;-60
2021/04/21 01:48:35;;;;;;;37.80;28.77;;;8.50;99.90;;;;;;5089327;28;20213;-60
2021/04/21 01:51:30;;;;;;;30.90;27.20;;;8.50;99.90;;;;;;5092455;28;20242;-61
2021/04/21 01:54:05;;;;;;;41.00;30.67;;;8.50;99.90;;;;;;5078507;28;20207;-60
2021/04/21 01:56:56;;;;;;;36.85;24.70;;;8.50;99.90;;;;;;5064461;28;20248;-61
2021/04/21 01:59:45;;;;;;;37.20;30.48;;;8.50;99.90;;;;;;5078477;28;20213;-61
2021/04/21 02:02:29;;;;;;;41.58;31.70;;;8.40;99.90;;;;;;5068642;28;20509;-60
2021/04/21 02:05:13;;;;;;;41.28;34.08;;;8.40;99.90;;;;;;5077115;28;20199;-61
2021/04/21 02:07:46;;;;;;;45.85;33.38;;;8.30;99.90;;;;;;5079496;28;20429;-60
2021/04/21 02:10:16;;;;;;;53.42;37.40;;;8.20;99.90;;;;;;5077873;28;20235;-60
2021/04/21 02:12:42;;;;;;;44.70;34.83;;;8.10;99.90;;;;;;5067745;28;20222;-61
2021/04/21 02:15:33;;;;;;;43.42;35.95;;;8.10;99.90;;;;;;5075904;28;20500;-60
2021/04/21 02:18:13;;;;;;;52.08;37.90;;;8.10;99.90;;;;;;5079551;28;20212;-61
2021/04/21 02:21:06;;;;;;;49.05;38.70;;;8.10;99.90;;;;;;5064080;28;20211;-60
2021/04/21 02:23:39;;;;;;;44.90;36.05;;;8.00;99.90;;;;;;5076996;28;20485;-61
2021/04/21 02:26:23;;;;;;;48.17;36.08;;;8.10;99.90;;;;;;5063574;28;20444;-60
2021/04/21 02:29:09;;;;;;;50.50;36.25;;;7.90;99.90;;;;;;5076207;28;20226;-60
2021/04/21 02:31:57;;;;;;;49.00;38.08;;;8.00;99.90;;;;;;5079061;28;20226;-60
2021/04/21 02:34:29;;;;;;;46.17;37.40;;;8.00;99.90;;;;;;5064162;28;20204;-61
2021/04/21 02:37:10;;;;;;;47.63;35.08;;;8.10;99.90;;;;;;5072623;28;20268;-61
2021/04/21 02:39:52;;;;;;;47.10;37.53;;;8.00;99.90;;;;;;5093236;28;20224;-60
2021/04/21 02:42:40;;;;;;;50.15;37.90;;;8.00;99.90;;;;;;5100786;28;20559;-60
2021/04/21 02:45:44;;;;;;;49.40;38.00;;;8.00;99.90;;;;;;5074350;28;20216;-61
2021/04/21 02:48:27;;;;;;;44.53;37.47;;;8.10;99.90;;;;;;5102926;28;20205;-60
2021/04/21 02:51:19;;;;;;;52.85;37.60;;;8.10;99.90;;;;;;5075172;28;20242;-61
2021/04/21 02:54:04;;;;;;;52.22;39.20;;;8.30;99.90;;;;;;5102135;28;20210;-61
2021/04/21 02:56:39;;;;;;;43.03;33.88;;;8.40;99.90;;;;;;5093017;28;20255;-62
2021/04/21 02:59:38;;;;;;;46.47;36.13;;;8.50;99.90;;;;;;5096456;28;20198;-60
2021/04/21 03:02:08;;;;;;;42.58;33.97;;;8.60;99.90;;;;;;5068629;28;20226;-60
2021/04/21 03:04:51;;;;;;;44.80;34.33;;;8.70;99.90;;;;;;5069802;28;20211;-61
2021/04/21 03:07:30;;;;;;;44.20;34.95;;;8.70;99.90;;;;;;5078689;28;20210;-61
2021/04/21 03:10:07;;;;;;;41.00;31.77;;;8.70;99.90;;;;;;5085499;28;20487;-61
2021/04/21 03:12:37;;;;;;;34.75;29.13;;;8.70;99.90;;;;;;5100104;28;20205;-61
2021/04/21 03:15:07;;;;;;;33.15;28.00;;;8.60;99.90;;;;;;5082388;28;20206;-61
2021/04/21 03:17:34;;;;;;;33.92;28.67;;;8.60;99.90;;;;;;5082162;28;20206;-61
2021/04/21 03:20:07;;;;;;;32.58;27.77;;;8.70;99.90;;;;;;5083616;28;20526;-61
2021/04/21 03:22:36;;;;;;;30.60;27.13;;;8.70;99.90;;;;;;5089635;28;20481;-61
2021/04/21 03:25:13;;;;;;;34.05;26.05;;;8.70;99.90;;;;;;5077592;28;20195;-60
2021/04/21 03:27:42;;;;;;;31.52;25.05;;;8.80;99.90;;;;;;5090241;28;20208;-61
2021/04/21 03:30:15;;;;;;;28.30;24.13;;;8.80;99.90;;;;;;5075552;28;20656;-60
2021/04/21 03:32:47;;;;;;;27.05;23.38;;;8.90;99.90;;;;;;5069562;28;20206;-60
2021/04/21 03:35:15;;;;;;;27.00;24.23;;;8.70;99.90;;;;;;5081142;28;20513;-60
2021/04/21 03:37:54;;;;;;;25.95;23.15;;;8.90;99.90;;;;;;5081106;28;20260;-60
2021/04/21 03:40:21;;;;;;;25.60;21.35;;;9.00;99.90;;;;;;5081723;28;20383;-61
2021/04/21 03:42:48;;;;;;;28.23;22.40;;;9.00;99.90;;;;;;5081743;28;20230;-61
2021/04/21 03:45:15;;;;;;;25.23;21.67;;;9.10;99.90;;;;;;5077546;28;20195;-60
2021/04/21 03:47:42;;;;;;;25.27;21.10;;;9.20;99.90;;;;;;5091656;28;20214;-62
2021/04/21 03:50:11;;;;;;;23.10;20.70;;;9.20;99.90;;;;;;5080529;28;20313;-61
2021/04/21 03:52:42;;;;;;;24.00;21.20;;;9.20;99.90;;;;;;5081822;28;20530;-60
2021/04/21 03:55:11;;;;;;;25.10;18.65;;;9.30;99.90;;;;;;5066856;28;20208;-61
2021/04/21 03:57:45;;;;;;;22.02;19.70;;;9.30;99.90;;;;;;5081652;28;20205;-61
2021/04/21 04:00:15;;;;;;;21.25;16.23;;;9.20;99.90;;;;;;5080744;28;20215;-61
2021/04/21 04:02:55;;;;;;;24.40;19.17;;;9.30;99.90;;;;;;5081834;28;20217;-61
2021/04/21 04:05:44;;;;;;;15.30;13.70;;;9.30;99.90;;;;;;5066758;28;20249;-61
2021/04/21 04:08:14;;;;;;;16.08;13.60;;;9.30;99.90;;;;;;5080662;28;20212;-62
2021/04/21 04:10:47;;;;;;;15.23;13.60;;;9.40;99.90;;;;;;5081177;28;20413;-60
2021/04/21 04:13:14;;;;;;;20.75;11.30;;;9.40;99.90;;;;;;5080728;28;20214;-62
2021/04/21 04:15:41;;;;;;;13.20;8.70;;;9.40;99.90;;;;;;5080614;28;20207;-60
2021/04/21 04:18:12;;;;;;;8.05;6.85;;;9.50;99.90;;;;;;5072730;28;20239;-60
2021/04/21 04:20:44;;;;;;;5.65;5.07;;;9.60;99.90;;;;;;5070711;28;20214;-60
2021/04/21 04:23:12;;;;;;;7.05;5.57;;;9.70;99.90;;;;;;5065543;28;20267;-61
2021/04/21 04:25:44;;;;;;;4.50;4.10;;;9.80;99.90;;;;;;5079841;28;20219;-60
2021/04/21 04:28:11;;;;;;;9.73;5.55;;;9.80;99.90;;;;;;5060592;28;20196;-62
2021/04/21 04:30:39;;;;;;;5.78;4.93;;;9.80;99.90;;;;;;5083526;28;20230;-61
2021/04/21 04:33:07;;;;;;;3.47;3.17;;;9.90;99.90;;;;;;5070442;28;20219;-61
2021/04/21 04:35:37;;;;;;;5.82;5.05;;;9.90;99.90;;;;;;5081572;28;20446;-60
2021/04/21 04:38:04;;;;;;;6.47;4.57;;;9.90;99.90;;;;;;5090789;28;20211;-60
2021/04/21 04:40:32;;;;;;;8.63;6.25;;;9.90;99.90;;;;;;5080344;28;20211;-61
2021/04/21 04:42:59;;;;;;;7.45;5.20;;;10.10;99.90;;;;;;5092045;28;20246;-62
2021/04/21 04:45:28;;;;;;;6.32;4.43;;;10.20;99.90;;;;;;5091206;28;20247;-61
2021/04/21 04:48:01;;;;;;;8.43;5.68;;;10.20;99.90;;;;;;5080515;28;20200;-61
2021/04/21 04:50:30;;;;;;;6.57;4.72;;;10.20;99.90;;;;;;5074656;28;20582;-60
2021/04/21 04:52:58;;;;;;;7.45;6.78;;;10.20;99.90;;;;;;5072854;28;20232;-60
2021/04/21 04:55:26;;;;;;;4.35;3.95;;;10.30;99.90;;;;;;5080006;28;20216;-61
2021/04/21 04:57:55;;;;;;;6.80;6.10;;;10.40;99.90;;;;;;5078163;28;20382;-60
2021/04/21 05:00:25;;;;;;;5.60;5.05;;;10.40;99.90;;;;;;5071500;28;20220;-60
2021/04/21 05:02:57;;;;;;;8.52;6.40;;;10.50;99.90;;;;;;5075784;28;20231;-61
2021/04/21 05:05:25;;;;;;;9.30;6.28;;;10.30;99.90;;;;;;5079646;28;20229;-62
2021/04/21 05:08:00;;;;;;;7.97;5.50;;;10.30;99.90;;;;;;5075873;28;20208;-61
2021/04/21 05:10:39;;;;;;;6.78;5.30;;;10.50;99.90;;;;;;5079379;28;20244;-61
2021/04/21 05:13:11;;;;;;;5.97;4.80;;;10.90;99.90;;;;;;5075882;28;20378;-62
2021/04/21 05:15:37;;;;;;;5.95;5.45;;;10.60;99.90;;;;;;5073853;28;20209;-60
2021/04/21 05:18:22;;;;;;;4.82;4.25;;;10.80;99.90;;;;;;5075514;28;20212;-61
2021/04/21 05:21:04;;;;;;;8.20;4.97;;;11.10;99.90;;;;;;5066968;28;20245;-60
2021/04/21 05:23:57;;;;;;;7.43;5.75;;;11.30;99.50;;;;;;5073694;28;20407;-60
2021/04/21 05:27:06;;;;;;;4.47;4.07;;;11.10;99.40;;;;;;5049386;28;20214;-61
2021/04/21 05:29:53;;;;;;;5.53;4.63;;;11.30;99.00;;;;;;5085544;28;20233;-59
2021/04/21 05:32:57;;;;;;;3.78;3.42;;;11.20;99.10;;;;;;5084172;28;20315;-61
2021/04/21 05:35:39;;;;;;;4.90;3.70;;;11.30;99.30;;;;;;5076767;28;20212;-62
2021/04/21 05:38:43;;;;;;;4.07;3.60;;;11.50;98.60;;;;;;5075477;28;20209;-62
2021/04/21 05:41:41;;;;;;;4.95;4.45;;;11.50;98.50;;;;;;5065825;28;20226;-60
2021/04/21 05:44:53;;;;;;;5.38;4.88;;;11.60;98.70;;;;;;5065784;28;20206;-61
2021/04/21 05:47:47;;;;;;;7.50;4.85;;;12.00;97.80;;;;;;5065840;28;20202;-62
2021/04/21 05:50:30;;;;;;;5.20;4.70;;;12.50;97.10;;;;;;5092687;28;20566;-61
2021/04/21 05:53:18;;;;;;;4.07;3.63;;;12.60;96.50;;;;;;5079223;28;20340;-61
2021/04/21 05:55:53;;;;;;;4.30;3.90;;;13.10;96.50;;;;;;5064838;28;20198;-62
2021/04/21 05:58:45;;;;;;;4.28;3.88;;;13.70;94.60;;;;;;5079018;28;20211;-61
2021/04/21 06:01:35;;;;;;;3.00;2.80;;;14.40;93.00;;;;;;5051468;28;20207;-60
2021/04/21 06:04:02;;;;;;;4.40;4.10;;;15.10;92.00;;;;;;5042532;28;20204;-62
2021/04/21 06:06:29;;;;;;;6.40;5.20;;;15.80;90.50;;;;;;5069024;28;20201;-62
2021/04/21 06:08:56;;;;;;;4.40;4.03;;;16.30;87.50;;;;;;5074321;28;20451;-61
2021/04/21 06:11:26;;;;;;;4.93;4.53;;;17.00;87.00;;;;;;5078455;28;20764;-62
2021/04/21 06:13:56;;;;;;;4.93;4.50;;;17.60;84.00;;;;;;5077241;28;20444;-61
2021/04/21 06:16:23;;;;;;;5.00;4.57;;;17.90;83.40;;;;;;5065207;28;20436;-61
2021/04/21 06:19:14;;;;;;;5.93;5.43;;;19.00;78.10;;;;;;5076824;28;20520;-61
2021/04/21 06:21:41;;;;;;;5.70;5.20;;;19.90;72.90;;;;;;5069015;28;20465;-62
2021/04/21 06:24:35;;;;;;;5.50;5.07;;;19.80;72.80;;;;;;5073159;28;20409;-61
2021/04/21 06:27:07;;;;;;;5.40;5.00;;;19.50;73.50;;;;;;5067973;28;20452;-62
2021/04/21 06:29:34;;;;;;;5.23;4.93;;;19.20;75.80;;;;;;5078371;28;20489;-63
2021/04/21 06:32:03;;;;;;;4.07;3.77;;;18.70;77.40;;;;;;5078378;28;20754;-64
2021/04/21 06:34:30;;;;;;;5.13;3.63;;;18.10;79.60;;;;;;5078435;28;20413;-62
2021/04/21 06:36:58;;;;;;;4.30;4.00;;;18.10;79.30;;;;;;5069136;28;20520;-63
2021/04/21 06:39:28;;;;;;;4.23;3.97;;;18.00;78.80;;;;;;5078345;28;20447;-64
2021/04/21 06:42:04;;;;;;;4.17;3.83;;;17.30;80.90;;;;;;5070241;28;20441;-64
2021/04/21 06:44:47;;;;;;;4.73;4.43;;;16.70;83.50;;;;;;5069062;28;20596;-62
2021/04/21 06:47:25;;;;;;;6.60;4.70;;;16.10;86.60;;;;;;5065005;28;20581;-62
2021/04/21 06:50:05;;;;;;;6.82;4.07;;;15.30;90.90;;;;;;5078204;28;20686;-63
2021/04/21 06:52:34;;;;;;;3.50;3.20;;;14.50;91.40;;;;;;5074550;28;20462;-62
2021/04/21 06:55:11;;;;;;;4.15;3.80;;;14.10;92.60;;;;;;5078301;28;20270;-60
2021/04/21 06:57:39;;;;;;;4.15;3.75;;;13.80;93.50;;;;;;5077793;28;20662;-63
2021/04/21 07:00:11;;;;;;;4.05;2.58;;;13.80;93.90;;;;;;5077604;28;20288;-61
2021/04/21 07:02:43;;;;;;;3.73;3.40;;;15.90;91.20;;;;;;5078023;28;20216;-62
2021/04/21 07:05:41;;;;;;;4.30;3.97;;;18.60;79.00;;;;;;5077749;28;20464;-62
2021/04/21 07:08:18;;;;;;;4.47;4.23;;;20.50;69.50;;;;;;5071279;28;20390;-62
2021/04/21 07:10:52;;;;;;;4.73;4.43;;;20.50;67.10;;;;;;5078559;28;20454;-62
2021/04/21 07:13:28;;;;;;;4.90;4.60;;;20.70;65.40;;;;;;5077663;28;20493;-62
2021/04/21 07:15:59;;;;;;;5.47;5.07;;;21.30;64.70;;;;;;5075176;28;20722;-61
2021/04/21 07:18:37;;;;;;;5.60;5.20;;;22.30;60.70;;;;;;5080278;28;20667;-61
2021/04/21 07:21:08;;;;;;;6.67;6.23;;;23.20;54.40;;;;;;5073634;28;20426;-62
2021/04/21 07:23:39;;;;;;;7.40;6.97;;;23.70;52.30;;;;;;5069418;28;20837;-61
2021/04/21 07:26:08;;;;;;;6.23;5.93;;;24.20;51.80;;;;;;5081107;28;20448;-61
2021/04/21 07:28:37;;;;;;;7.30;6.80;;;24.60;49.90;;;;;;5072042;28;20495;-61
2021/04/21 07:31:17;;;;;;;6.40;6.10;;;25.10;48.40;;;;;;5070122;28;20453;-62
2021/04/21 07:33:48;;;;;;;6.90;6.50;;;25.20;49.10;;;;;;5070673;28;20613;-61
2021/04/21 07:36:17;;;;;;;8.40;7.83;;;27.20;45.70;;;;;;5081347;28;20685;-62
2021/04/21 07:38:52;;;;;;;8.00;7.40;;;27.40;43.90;;;;;;5069178;28;20442;-61
2021/04/21 07:41:41;;;;;;;8.30;7.80;;;27.80;42.40;;;;;;5077664;28;20465;-61
2021/04/21 07:44:29;;;;;;;8.67;8.17;;;28.70;40.80;;;;;;5085236;28;20451;-62
2021/04/21 07:47:05;;;;;;;8.43;8.00;;;28.80;40.70;;;;;;5096616;28;20511;-62
2021/04/21 07:49:39;;;;;;;9.30;8.80;;;29.70;40.80;;;;;;5096442;28;20478;-61
2021/04/21 07:52:07;;;;;;;8.97;8.47;;;30.20;38.40;;;;;;5083026;28;20519;-62
2021/04/21 07:54:36;;;;;;;8.83;8.23;;;30.00;37.50;;;;;;5081563;28;20499;-62
2021/04/21 07:57:16;;;;;;;8.77;8.23;;;29.90;37.90;;;;;;5081201;28;20630;-62
2021/04/21 07:59:44;;;;;;;8.00;7.60;;;29.90;38.20;;;;;;5092804;28;20648;-61
2021/04/21 08:02:15;;;;;;;8.80;8.40;;;29.90;37.40;;;;;;5067152;28;20443;-61
2021/04/21 08:04:57;;;;;;;9.10;8.60;;;30.20;37.80;;;;;;5086943;28;20439;-62
2021/04/21 08:07:27;;;;;;;9.30;8.90;;;30.70;37.50;;;;;;5086774;28;20703;-62
2021/04/21 08:09:55;;;;;;;10.27;9.77;;;30.20;37.10;;;;;;5081157;28;20512;-62
2021/04/21 08:12:25;;;;;;;9.10;8.50;;;29.90;37.50;;;;;;5077507;28;20532;-63
2021/04/21 08:14:56;;;;;;;9.23;8.73;;;30.20;37.80;;;;;;5071335;28;20436;-62
2021/04/21 08:17:23;;;;;;;9.20;8.70;;;30.70;36.30;;;;;;5090495;28;20467;-62
2021/04/21 08:19:59;;;;;;;8.47;8.07;;;30.30;37.10;;;;;;5084302;28;20460;-62
2021/04/21 08:22:29;;;;;;;8.27;7.90;;;30.10;39.30;;;;;;5067685;28;20439;-62
2021/04/21 08:24:58;;;;;;;9.67;9.10;;;29.50;38.10;;;;;;5072458;28;20457;-62
2021/04/21 08:27:33;;;;;;;11.03;10.43;;;28.60;39.10;;;;;;5079437;28;20443;-61
2021/04/21 08:30:08;;;;;;;8.93;8.43;;;28.10;40.20;;;;;;5074450;28;20528;-62
2021/04/21 08:32:35;;;;;;;8.37;8.00;;;29.20;39.60;;;;;;5073563;28;20423;-62
2021/04/21 08:35:02;;;;;;;9.03;8.53;;;30.20;37.40;;;;;;5082768;28;20501;-62
2021/04/21 08:37:28;;;;;;;8.97;8.43;;;30.40;38.40;;;;;;5075954;28;20432;-62
2021/04/21 08:39:55;;;;;;;9.53;8.93;;;30.70;39.40;;;;;;5080728;28;20451;-63
2021/04/21 08:42:24;;;;;;;9.03;8.63;;;31.20;37.60;;;;;;5090799;28;20487;-62
2021/04/21 08:44:56;;;;;;;9.20;8.70;;;31.60;34.50;;;;;;5088176;28;20447;-62
2021/04/21 08:47:26;;;;;;;8.40;8.10;;;31.00;35.80;;;;;;5092717;28;20436;-62
2021/04/21 08:49:56;;;;;;;8.50;8.10;;;31.10;34.10;;;;;;5080225;28;20562;-61
2021/04/21 08:52:25;;;;;;;9.00;8.50;;;31.70;35.10;;;;;;5080443;28;20459;-62
2021/04/21 08:54:56;;;;;;;9.40;8.93;;;30.50;35.40;;;;;;5093552;28;20777;-62
2021/04/21 08:57:22;;;;;;;8.03;7.63;;;31.90;36.40;;;;;;5085608;28;20769;-63
2021/04/21 08:59:49;;;;;;;8.27;7.87;;;32.10;33.00;;;;;;5099216;28;20692;-62
2021/04/21 09:02:22;;;;;;;10.20;9.60;;;32.00;33.50;;;;;;5081594;28;20443;-62
2021/04/21 09:04:53;;;;;;;8.80;8.40;;;32.40;33.50;;;;;;5091851;28;20526;-62
2021/04/21 09:07:20;;;;;;;9.47;8.93;;;32.10;34.00;;;;;;5081834;28;20463;-62
2021/04/21 09:09:47;;;;;;;8.37;8.00;;;31.60;34.30;;;;;;5079419;28;20540;-62
2021/04/21 09:12:14;;;;;;;8.13;7.67;;;30.90;35.00;;;;;;5079399;28;20452;-63
2021/04/21 09:14:41;;;;;;;8.30;7.90;;;29.80;35.30;;;;;;5096093;28;20790;-64
2021/04/21 09:17:08;;;;;;;8.13;7.63;;;29.20;37.50;;;;;;5099342;28;20435;-62
2021/04/21 09:19:36;;;;;;;7.50;7.20;;;28.90;36.30;;;;;;5078746;28;20515;-61
2021/04/21 09:22:09;;;;;;;8.80;8.30;;;28.50;38.30;;;;;;5076916;28;20759;-61
2021/04/21 09:24:39;;;;;;;7.83;7.33;;;27.90;38.60;;;;;;5079983;28;20454;-61
2021/04/21 09:27:35;;;;;;;7.90;7.40;;;26.10;42.40;;;;;;5079040;28;20618;-62
2021/04/21 09:30:16;;;;;;;8.17;7.67;;;24.40;46.20;;;;;;5079407;28;20855;-61
2021/04/21 09:32:54;;;;;;;7.03;6.70;;;23.70;48.30;;;;;;5069453;28;20461;-61
2021/04/21 09:35:28;;;;;;;6.77;6.47;;;22.70;48.10;;;;;;5074194;28;20468;-61
2021/04/21 09:38:07;;;;;;;6.60;6.30;;;22.20;53.60;;;;;;5079309;28;20505;-62
2021/04/21 09:40:54;;;;;;;7.70;6.97;;;21.60;53.10;;;;;;5079312;28;20420;-62
2021/04/21 09:43:27;;;;;;;6.10;5.80;;;21.10;52.90;;;;;;5070462;28;20441;-61
2021/04/21 09:45:57;;;;;;;6.07;5.67;;;20.90;53.50;;;;;;5089413;28;20515;-63
2021/04/21 09:48:33;;;;;;;5.70;5.50;;;20.50;53.10;;;;;;5083656;28;20456;-61
2021/04/21 09:51:09;;;;;;;5.67;5.47;;;20.20;51.30;;;;;;5089986;28;20514;-61
2021/04/21 09:53:45;;;;;;;6.17;5.77;;;19.80;54.40;;;;;;5066309;28;20642;-62
2021/04/21 09:56:22;;;;;;;5.97;5.50;;;19.70;55.80;;;;;;5089807;28;20448;-62
2021/04/21 09:58:55;;;;;;;8.20;7.80;;;19.70;53.70;;;;;;5082198;28;20411;-61
2021/04/21 10:01:35;;;;;;;5.60;5.30;;;19.70;55.70;;;;;;5079510;28;20443;-61
2021/04/21 10:04:08;;;;;;;6.33;5.90;;;19.70;55.00;;;;;;5077069;28;20986;-62
2021/04/21 10:06:59;;;;;;;5.70;5.50;;;19.70;53.50;;;;;;5078907;28;20443;-62
2021/04/21 10:09:34;;;;;;;6.00;5.67;;;19.60;56.00;;;;;;5069249;28;20438;-62
2021/04/21 10:12:25;;;;;;;5.80;5.50;;;19.50;55.40;;;;;;5078646;28;20511;-62
2021/04/21 10:15:02;;;;;;;6.03;5.53;;;19.40;54.60;;;;;;5087407;28;20774;-61
2021/04/21 10:17:30;;;;;;;6.33;5.93;;;19.40;55.50;;;;;;5081477;28;20469;-62
2021/04/21 10:19:58;;;;;;;6.10;5.80;;;19.60;56.30;;;;;;5074840;28;20415;-62
2021/04/21 10:22:26;;;;;;;5.10;4.87;;;19.90;55.80;;;;;;5081417;28;20551;-63
2021/04/21 10:24:53;;;;;;;5.53;5.23;;;20.00;54.90;;;;;;5068383;28;20416;-62
2021/04/21 10:27:21;;;;;;;6.07;5.77;;;20.30;56.10;;;;;;5058313;28;20510;-62
2021/04/21 10:29:48;;;;;;;6.00;5.57;;;20.10;54.30;;;;;;5070113;28;20472;-63
2021/04/21 10:32:19;;;;;;;5.40;5.10;;;20.30;57.40;;;;;;5069105;28;20433;-62
2021/04/21 10:34:47;;;;;;;6.10;5.80;;;20.20;56.90;;;;;;5069343;28;20428;-61
2021/04/21 10:37:16;;;;;;;5.70;5.40;;;19.90;55.00;;;;;;5077876;28;20415;-63
2021/04/21 10:39:52;;;;;;;5.60;5.30;;;19.90;55.20;;;;;;5078577;28;20451;-62
2021/04/21 10:42:20;;;;;;;5.20;5.00;;;20.40;54.90;;;;;;5073787;28;20449;-62
2021/04/21 10:44:49;;;;;;;5.10;4.90;;;21.00;53.90;;;;;;5079011;28;20408;-62
2021/04/21 10:47:27;;;;;;;5.53;5.33;;;21.40;52.40;;;;;;5071250;28;20415;-62
2021/04/21 10:50:04;;;;;;;5.87;5.50;;;21.10;53.50;;;;;;5069493;28;20706;-62
2021/04/21 10:52:30;;;;;;;6.10;5.77;;;20.90;53.40;;;;;;5086055;28;20413;-62
2021/04/21 10:55:10;;;;;;;5.20;4.97;;;21.30;52.60;;;;;;5085032;28;20419;-63
2021/04/21 10:58:08;;;;;;;5.30;5.10;;;21.60;52.30;;;;;;5078807;28;20408;-61
2021/04/21 11:00:40;;;;;;;5.47;5.17;;;21.80;51.70;;;;;;5060643;28;20441;-62
2021/04/21 11:03:11;;;;;;;5.47;5.10;;;22.20;50.90;;;;;;5090171;28;20413;-62
2021/04/21 11:05:41;;;;;;;5.90;5.50;;;22.20;50.30;;;;;;5080900;28;20460;-62
2021/04/21 11:08:15;;;;;;;5.27;4.97;;;21.80;49.90;;;;;;5081605;28;20503;-63
2021/04/21 11:10:50;;;;;;;5.20;5.00;;;21.30;47.50;;;;;;5082033;28;20479;-62
2021/04/21 11:13:42;;;;;;;6.13;5.77;;;20.70;48.50;;;;;;5082173;28;20479;-63
2021/04/21 11:16:12;;;;;;;5.17;4.97;;;20.40;48.90;;;;;;5081918;28;20778;-61
2021/04/21 11:18:40;;;;;;;5.10;4.80;;;20.20;50.90;;;;;;5078501;28;20660;-63
2021/04/21 11:21:07;;;;;;;6.53;6.13;;;20.40;53.50;;;;;;5071939;28;20426;-62
2021/04/21 11:23:55;;;;;;;5.67;5.47;;;21.00;52.90;;;;;;5074373;28;20480;-63
2021/04/21 11:26:31;;;;;;;5.53;5.20;;;21.10;53.40;;;;;;5085128;28;20413;-63
2021/04/21 11:29:16;;;;;;;6.17;5.63;;;21.00;49.70;;;;;;5078392;28;20426;-62
2021/04/21 11:31:42;;;;;;;4.80;4.60;;;20.80;53.20;;;;;;5063899;28;20472;-64
2021/04/21 11:34:30;;;;;;;5.20;5.00;;;20.70;50.80;;;;;;5085393;28;20435;-64
2021/04/21 11:37:12;;;;;;;5.73;5.43;;;21.20;51.30;;;;;;5075720;28;20477;-63
2021/04/21 11:39:49;;;;;;;5.53;5.13;;;21.20;50.10;;;;;;5081830;28;20421;-62
2021/04/21 11:42:34;;;;;;;5.10;4.80;;;20.70;50.10;;;;;;5072617;28;21891;-63
2021/04/21 11:45:04;;;;;;;4.83;4.63;;;20.20;51.60;;;;;;5081332;28;20464;-62
2021/04/21 11:47:51;;;;;;;4.47;4.27;;;19.70;51.50;;;;;;5081571;28;20446;-62
2021/04/21 11:50:18;;;;;;;4.50;4.17;;;19.70;50.80;;;;;;5076909;28;20484;-63
2021/04/21 11:52:56;;;;;;;4.60;4.30;;;19.90;51.50;;;;;;5081415;28;20414;-63
2021/04/21 11:55:36;;;;;;;4.50;4.23;;;20.00;49.80;;;;;;5077751;28;20468;-63
2021/04/21 11:58:18;;;;;;;5.40;5.20;;;19.50;51.80;;;;;;5083064;28;20617;-61
2021/04/21 12:00:51;;;;;;;4.87;4.67;;;20.00;52.80;;;;;;5078042;28;20439;-63
2021/04/21 12:03:24;;;;;;;5.17;4.93;;;20.40;50.30;;;;;;5076443;28;20446;-64
2021/04/21 12:05:53;;;;;;;5.07;4.87;;;20.60;50.50;;;;;;5075219;28;20445;-62
2021/04/21 12:08:22;;;;;;;4.37;4.23;;;20.50;49.50;;;;;;5088041;28;20421;-63
2021/04/21 12:10:49;;;;;;;4.67;4.47;;;20.70;51.10;;;;;;5077884;28;20487;-63
2021/04/21 12:13:27;;;;;;;4.93;4.73;;;20.70;50.90;;;;;;5074780;28;20429;-62
2021/04/21 12:16:13;;;;;;;5.50;5.00;;;20.70;50.60;;;;;;5075015;28;20462;-64
2021/04/21 12:18:51;;;;;;;5.00;4.80;;;21.00;49.90;;;;;;5077192;28;20501;-62
2021/04/21 12:21:29;;;;;;;4.57;4.37;;;20.80;49.60;;;;;;5076574;28;20413;-61
2021/04/21 12:24:01;;;;;;;4.77;4.50;;;20.80;49.10;;;;;;5076170;28;20431;-62
2021/04/21 12:26:33;;;;;;;4.90;4.70;;;20.70;48.60;;;;;;5078756;28;20415;-64
2021/04/21 12:29:04;;;;;;;5.33;5.03;;;20.40;50.60;;;;;;5082675;28;20444;-63
2021/04/21 12:31:32;;;;;;;5.57;5.27;;;20.10;50.00;;;;;;5078085;28;20451;-62
2021/04/21 12:34:01;;;;;;;5.17;4.87;;;19.90;48.60;;;;;;5074808;28;20412;-63
2021/04/21 12:36:30;;;;;;;4.97;4.77;;;19.80;49.50;;;;;;5068819;28;20404;-62
2021/04/21 12:39:13;;;;;;;5.77;5.47;;;19.70;49.40;;;;;;5066622;28;20657;-63
2021/04/21 12:41:43;;;;;;;4.80;4.60;;;19.60;49.50;;;;;;5068962;28;20435;-63
2021/04/21 12:44:24;;;;;;;5.30;5.00;;;19.50;49.30;;;;;;5082017;28;20732;-63
2021/04/21 12:46:53;;;;;;;4.60;4.50;;;19.20;47.90;;;;;;5090937;28;20414;-61
2021/04/21 12:49:37;;;;;;;5.93;5.33;;;18.90;49.00;;;;;;5079930;28;20458;-63
2021/04/21 12:52:29;;;;;;;5.80;5.50;;;18.70;50.50;;;;;;5078607;28;20410;-62
2021/04/21 12:54:56;;;;;;;5.40;5.10;;;18.80;50.00;;;;;;5081018;28;20446;-63
2021/04/21 12:57:24;;;;;;;4.90;4.70;;;18.90;50.50;;;;;;5076512;28;20624;-65
2021/04/21 12:59:56;;;;;;;4.60;4.40;;;18.90;51.40;;;;;;5077984;28;20433;-63
2021/04/21 13:02:45;;;;;;;6.80;6.50;;;19.00;50.20;;;;;;5083666;28;20774;-63
2021/04/21 13:05:13;;;;;;;5.00;4.80;;;19.00;51.40;;;;;;5077842;28;20724;-62
2021/04/21 13:07:40;;;;;;;5.63;5.33;;;19.20;51.20;;;;;;5069734;28;20456;-63
2021/04/21 13:10:10;;;;;;;6.50;6.00;;;19.40;49.50;;;;;;5083695;28;20496;-62
2021/04/21 13:12:37;;;;;;;4.80;4.60;;;19.30;49.90;;;;;;5077607;28;20418;-62
2021/04/21 13:15:12;;;;;;;4.77;4.50;;;19.10;50.70;;;;;;5079462;28;20469;-63
2021/04/21 13:17:49;;;;;;;5.40;5.20;;;19.20;50.90;;;;;;5081893;28;20454;-62
2021/04/21 13:20:16;;;;;;;5.00;4.73;;;19.20;50.90;;;;;;5088122;28;20743;-63
2021/04/21 13:22:44;;;;;;;4.37;4.27;;;19.30;51.20;;;;;;5077206;28;20633;-63